sensor_id;sensor_type;location;lat;lon;timestamp;temperature;humidity
6540;DHT22;50344;51.142;16.892;2024-03-02T00:01:22;22.90;50.30
6540;DHT22;50344;51.142;16.892;2024-03-02T00:03:47;22.90;50.30
6540;DHT22;50344;51.142;16.892;2024-03-02T00:06:13;22.90;50.30
6540;DHT22;50344;51.142;16.892;2024-03-02T00:08:39;22.90;50.50
6540;DHT22;50344;51.142;16.892;2024-03-02T00:14:08;22.90;50.50
6540;DHT22;50344;51.142;16.892;2024-03-02T00:16:33;22.90;50.40
6540;DHT22;50344;51.142;16.892;2024-03-02T00:19:03;22.90;50.30
6540;DHT22;50344;51.142;16.892;2024-03-02T00:21:29;22.90;50.20
6540;DHT22;50344;51.142;16.892;2024-03-02T00:23:56;22.90;50.10
6540;DHT22;50344;51.142;16.892;2024-03-02T00:26:21;22.90;50.10
6540;DHT22;50344;51.142;16.892;2024-03-02T00:28:47;22.90;50.00
6540;DHT22;50344;51.142;16.892;2024-03-02T00:31:15;22.90;49.90
6540;DHT22;50344;51.142;16.892;2024-03-02T00:33:43;22.90;49.90
6540;DHT22;50344;51.142;16.892;2024-03-02T00:36:09;22.90;49.80
6540;DHT22;50344;51.142;16.892;2024-03-02T00:38:39;22.90;49.80
6540;DHT22;50344;51.142;16.892;2024-03-02T00:41:07;22.90;49.80
6540;DHT22;50344;51.142;16.892;2024-03-02T00:46:18;22.90;49.80
6540;DHT22;50344;51.142;16.892;2024-03-02T00:49:05;22.90;49.90
6540;DHT22;50344;51.142;16.892;2024-03-02T00:51:30;22.90;49.80
6540;DHT22;50344;51.142;16.892;2024-03-02T00:53:58;22.90;49.60
6540;DHT22;50344;51.142;16.892;2024-03-02T00:56:24;22.90;49.70
6540;DHT22;50344;51.142;16.892;2024-03-02T01:01:44;23.40;50.00
6540;DHT22;50344;51.142;16.892;2024-03-02T01:04:09;22.90;49.80
6540;DHT22;50344;51.142;16.892;2024-03-02T01:06:35;22.90;49.60
6540;DHT22;50344;51.142;16.892;2024-03-02T01:15:13;22.90;49.90
6540;DHT22;50344;51.142;16.892;2024-03-02T01:17:39;22.90;49.80
6540;DHT22;50344;51.142;16.892;2024-03-02T01:20:07;22.90;49.90
6540;DHT22;50344;51.142;16.892;2024-03-02T01:22:33;22.50;49.40
6540;DHT22;50344;51.142;16.892;2024-03-02T01:24:58;22.90;49.60
6540;DHT22;50344;51.142;16.892;2024-03-02T01:27:24;22.90;49.80
6540;DHT22;50344;51.142;16.892;2024-03-02T01:29:49;22.90;49.70
6540;DHT22;50344;51.142;16.892;2024-03-02T01:32:15;22.90;49.60
6540;DHT22;50344;51.142;16.892;2024-03-02T01:34:41;22.90;49.70
6540;DHT22;50344;51.142;16.892;2024-03-02T01:37:06;22.60;49.40
6540;DHT22;50344;51.142;16.892;2024-03-02T01:39:32;22.90;49.50
6540;DHT22;50344;51.142;16.892;2024-03-02T01:41:57;22.90;49.50
6540;DHT22;50344;51.142;16.892;2024-03-02T01:44:23;22.90;49.60
6540;DHT22;50344;51.142;16.892;2024-03-02T01:46:48;22.80;49.20
6540;DHT22;50344;51.142;16.892;2024-03-02T01:49:14;22.90;49.40
6540;DHT22;50344;51.142;16.892;2024-03-02T01:51:39;22.90;49.30
6540;DHT22;50344;51.142;16.892;2024-03-02T01:54:05;22.90;49.40
6540;DHT22;50344;51.142;16.892;2024-03-02T01:56:30;22.80;49.30
6540;DHT22;50344;51.142;16.892;2024-03-02T02:02:03;22.80;49.40
6540;DHT22;50344;51.142;16.892;2024-03-02T02:04:28;22.80;49.30
6540;DHT22;50344;51.142;16.892;2024-03-02T02:06:54;22.80;49.40
6540;DHT22;50344;51.142;16.892;2024-03-02T02:09:19;22.80;49.40
6540;DHT22;50344;51.142;16.892;2024-03-02T02:11:45;22.80;49.20
6540;DHT22;50344;51.142;16.892;2024-03-02T02:14:10;22.80;49.30
6540;DHT22;50344;51.142;16.892;2024-03-02T02:16:36;22.80;49.20
6540;DHT22;50344;51.142;16.892;2024-03-02T02:19:02;22.80;49.30
6540;DHT22;50344;51.142;16.892;2024-03-02T02:21:28;22.80;49.40
6540;DHT22;50344;51.142;16.892;2024-03-02T02:23:53;22.80;49.30
6540;DHT22;50344;51.142;16.892;2024-03-02T02:26:19;22.80;49.30
6540;DHT22;50344;51.142;16.892;2024-03-02T02:28:46;22.80;49.50
6540;DHT22;50344;51.142;16.892;2024-03-02T02:31:13;22.80;49.40
6540;DHT22;50344;51.142;16.892;2024-03-02T02:39:42;22.80;49.30
6540;DHT22;50344;51.142;16.892;2024-03-02T02:48:23;22.80;49.20
6540;DHT22;50344;51.142;16.892;2024-03-02T02:54:02;22.80;49.20
6540;DHT22;50344;51.142;16.892;2024-03-02T02:56:28;22.80;50.00
6540;DHT22;50344;51.142;16.892;2024-03-02T02:58:54;22.80;49.10
6540;DHT22;50344;51.142;16.892;2024-03-02T03:07:26;22.80;49.10
6540;DHT22;50344;51.142;16.892;2024-03-02T03:09:51;22.80;49.10
6540;DHT22;50344;51.142;16.892;2024-03-02T03:15:09;22.80;49.10
6540;DHT22;50344;51.142;16.892;2024-03-02T03:17:35;22.80;49.20
6540;DHT22;50344;51.142;16.892;2024-03-02T03:20:02;22.80;49.10
6540;DHT22;50344;51.142;16.892;2024-03-02T03:22:29;22.80;49.20
6540;DHT22;50344;51.142;16.892;2024-03-02T03:24:55;22.80;49.10
6540;DHT22;50344;51.142;16.892;2024-03-02T03:27:21;22.80;49.10
6540;DHT22;50344;51.142;16.892;2024-03-02T03:29:46;22.80;48.90
6540;DHT22;50344;51.142;16.892;2024-03-02T03:32:12;22.80;49.00
6540;DHT22;50344;51.142;16.892;2024-03-02T03:34:38;22.80;49.00
6540;DHT22;50344;51.142;16.892;2024-03-02T03:37:03;22.80;49.00
6540;DHT22;50344;51.142;16.892;2024-03-02T03:39:29;22.80;48.90
6540;DHT22;50344;51.142;16.892;2024-03-02T03:41:54;22.80;49.10
6540;DHT22;50344;51.142;16.892;2024-03-02T03:44:20;22.80;49.00
6540;DHT22;50344;51.142;16.892;2024-03-02T03:46:45;22.80;49.00
6540;DHT22;50344;51.142;16.892;2024-03-02T03:49:11;22.80;48.90
6540;DHT22;50344;51.142;16.892;2024-03-02T03:51:36;22.80;48.90
6540;DHT22;50344;51.142;16.892;2024-03-02T03:54:03;22.80;48.90
6540;DHT22;50344;51.142;16.892;2024-03-02T03:56:31;23.40;49.40
6540;DHT22;50344;51.142;16.892;2024-03-02T03:58:56;22.80;48.90
6540;DHT22;50344;51.142;16.892;2024-03-02T04:01:22;22.80;49.00
6540;DHT22;50344;51.142;16.892;2024-03-02T04:03:48;22.80;48.90
6540;DHT22;50344;51.142;16.892;2024-03-02T04:06:15;22.80;48.90
6540;DHT22;50344;51.142;16.892;2024-03-02T04:41:28;22.80;48.60
6540;DHT22;50344;51.142;16.892;2024-03-02T04:43:53;22.80;48.60
6540;DHT22;50344;51.142;16.892;2024-03-02T04:46:19;22.80;48.50
6540;DHT22;50344;51.142;16.892;2024-03-02T04:48:44;22.80;49.20
6540;DHT22;50344;51.142;16.892;2024-03-02T04:51:10;22.80;48.70
6540;DHT22;50344;51.142;16.892;2024-03-02T04:53:36;22.80;48.40
6540;DHT22;50344;51.142;16.892;2024-03-02T04:56:02;22.80;48.20
6540;DHT22;50344;51.142;16.892;2024-03-02T04:58:54;22.80;48.10
6540;DHT22;50344;51.142;16.892;2024-03-02T05:01:20;22.80;48.30
6540;DHT22;50344;51.142;16.892;2024-03-02T05:03:45;22.90;48.40
6540;DHT22;50344;51.142;16.892;2024-03-02T05:06:11;22.80;48.50
6540;DHT22;50344;51.142;16.892;2024-03-02T05:08:36;23.00;49.00
6540;DHT22;50344;51.142;16.892;2024-03-02T05:11:02;22.80;48.20
6540;DHT22;50344;51.142;16.892;2024-03-02T05:13:46;22.80;48.10
6540;DHT22;50344;51.142;16.892;2024-03-02T05:16:11;22.80;48.20
6540;DHT22;50344;51.142;16.892;2024-03-02T05:18:37;22.80;48.30
6540;DHT22;50344;51.142;16.892;2024-03-02T05:21:03;22.80;48.10
6540;DHT22;50344;51.142;16.892;2024-03-02T05:23:28;22.80;48.10
6540;DHT22;50344;51.142;16.892;2024-03-02T05:25:54;22.80;48.20
6540;DHT22;50344;51.142;16.892;2024-03-02T05:28:19;22.80;48.10
6540;DHT22;50344;51.142;16.892;2024-03-02T05:30:45;22.80;48.20
6540;DHT22;50344;51.142;16.892;2024-03-02T05:33:11;22.80;48.30
6540;DHT22;50344;51.142;16.892;2024-03-02T05:35:37;22.80;48.50
6540;DHT22;50344;51.142;16.892;2024-03-02T05:38:02;22.80;48.10
6540;DHT22;50344;51.142;16.892;2024-03-02T05:40:28;22.80;48.50
6540;DHT22;50344;51.142;16.892;2024-03-02T05:42:53;22.80;48.50
6540;DHT22;50344;51.142;16.892;2024-03-02T05:45:19;22.80;48.50
6540;DHT22;50344;51.142;16.892;2024-03-02T05:47:44;22.80;48.50
6540;DHT22;50344;51.142;16.892;2024-03-02T05:50:10;22.80;48.50
6540;DHT22;50344;51.142;16.892;2024-03-02T05:52:35;22.80;48.50
6540;DHT22;50344;51.142;16.892;2024-03-02T05:55:01;22.80;48.20
6540;DHT22;50344;51.142;16.892;2024-03-02T05:57:26;22.80;48.50
6540;DHT22;50344;51.142;16.892;2024-03-02T06:00:20;22.80;48.50
6540;DHT22;50344;51.142;16.892;2024-03-02T06:02:47;22.80;48.40
6540;DHT22;50344;51.142;16.892;2024-03-02T06:05:13;22.80;48.40
6540;DHT22;50344;51.142;16.892;2024-03-02T06:07:39;22.80;48.20
6540;DHT22;50344;51.142;16.892;2024-03-02T06:10:04;22.80;48.30
6540;DHT22;50344;51.142;16.892;2024-03-02T06:12:32;22.80;48.60
6540;DHT22;50344;51.142;16.892;2024-03-02T06:14:58;22.90;48.30
6540;DHT22;50344;51.142;16.892;2024-03-02T06:17:23;22.80;48.40
6540;DHT22;50344;51.142;16.892;2024-03-02T06:19:49;22.80;48.20
6540;DHT22;50344;51.142;16.892;2024-03-02T06:22:14;22.90;48.30
6540;DHT22;50344;51.142;16.892;2024-03-02T06:24:40;22.80;48.10
6540;DHT22;50344;51.142;16.892;2024-03-02T06:27:05;22.80;48.10
6540;DHT22;50344;51.142;16.892;2024-03-02T06:29:34;22.80;48.10
6540;DHT22;50344;51.142;16.892;2024-03-02T06:32:00;22.80;48.10
6540;DHT22;50344;51.142;16.892;2024-03-02T06:34:25;22.80;48.10
6540;DHT22;50344;51.142;16.892;2024-03-02T06:36:51;22.80;48.10
6540;DHT22;50344;51.142;16.892;2024-03-02T06:39:16;22.40;47.80
6540;DHT22;50344;51.142;16.892;2024-03-02T06:41:42;22.80;48.20
6540;DHT22;50344;51.142;16.892;2024-03-02T06:44:08;22.80;48.20
6540;DHT22;50344;51.142;16.892;2024-03-02T06:46:33;22.80;48.10
6540;DHT22;50344;51.142;16.892;2024-03-02T06:48:59;22.80;48.10
6540;DHT22;50344;51.142;16.892;2024-03-02T06:51:24;22.80;48.40
6540;DHT22;50344;51.142;16.892;2024-03-02T06:53:50;22.80;48.10
6540;DHT22;50344;51.142;16.892;2024-03-02T06:56:15;22.80;48.10
6540;DHT22;50344;51.142;16.892;2024-03-02T06:58:41;22.90;48.20
6540;DHT22;50344;51.142;16.892;2024-03-02T07:01:08;22.90;48.20
6540;DHT22;50344;51.142;16.892;2024-03-02T07:03:33;22.90;48.20
6540;DHT22;50344;51.142;16.892;2024-03-02T07:05:59;22.90;48.20
6540;DHT22;50344;51.142;16.892;2024-03-02T07:08:24;22.90;48.20
6540;DHT22;50344;51.142;16.892;2024-03-02T07:10:50;22.90;48.20
6540;DHT22;50344;51.142;16.892;2024-03-02T07:13:15;22.30;47.70
6540;DHT22;50344;51.142;16.892;2024-03-02T07:15:41;22.90;48.20
6540;DHT22;50344;51.142;16.892;2024-03-02T07:18:45;22.90;48.20
6540;DHT22;50344;51.142;16.892;2024-03-02T07:21:16;22.90;48.20
6540;DHT22;50344;51.142;16.892;2024-03-02T07:23:41;23.10;48.40
6540;DHT22;50344;51.142;16.892;2024-03-02T07:26:07;22.90;48.00
6540;DHT22;50344;51.142;16.892;2024-03-02T07:28:33;22.90;48.20
6540;DHT22;50344;51.142;16.892;2024-03-02T07:31:15;22.90;47.90
6540;DHT22;50344;51.142;16.892;2024-03-02T07:36:25;22.90;47.50
6540;DHT22;50344;51.142;16.892;2024-03-02T07:38:50;22.90;47.40
6540;DHT22;50344;51.142;16.892;2024-03-02T07:41:17;22.80;47.30
6540;DHT22;50344;51.142;16.892;2024-03-02T07:43:45;22.90;47.40
6540;DHT22;50344;51.142;16.892;2024-03-02T07:46:10;22.80;47.20
6540;DHT22;50344;51.142;16.892;2024-03-02T07:48:36;22.80;47.20
6540;DHT22;50344;51.142;16.892;2024-03-02T07:51:01;22.80;47.20
6540;DHT22;50344;51.142;16.892;2024-03-02T07:53:27;22.80;47.20
6540;DHT22;50344;51.142;16.892;2024-03-02T07:55:53;22.90;47.20
6540;DHT22;50344;51.142;16.892;2024-03-02T07:58:20;22.40;46.70
6540;DHT22;50344;51.142;16.892;2024-03-02T08:00:50;22.90;47.20
6540;DHT22;50344;51.142;16.892;2024-03-02T08:03:37;22.90;47.80
6540;DHT22;50344;51.142;16.892;2024-03-02T08:06:02;22.90;48.20
6540;DHT22;50344;51.142;16.892;2024-03-02T08:08:28;22.90;48.20
6540;DHT22;50344;51.142;16.892;2024-03-02T08:10:53;22.90;50.10
6540;DHT22;50344;51.142;16.892;2024-03-02T08:13:19;22.90;48.80
6540;DHT22;50344;51.142;16.892;2024-03-02T08:15:44;22.90;48.50
6540;DHT22;50344;51.142;16.892;2024-03-02T08:18:10;23.00;48.40
6540;DHT22;50344;51.142;16.892;2024-03-02T08:20:35;23.00;48.40
6540;DHT22;50344;51.142;16.892;2024-03-02T08:23:01;23.00;48.30
6540;DHT22;50344;51.142;16.892;2024-03-02T08:25:27;23.00;48.40
6540;DHT22;50344;51.142;16.892;2024-03-02T08:27:52;23.00;48.30
6540;DHT22;50344;51.142;16.892;2024-03-02T08:30:18;23.00;48.30
6540;DHT22;50344;51.142;16.892;2024-03-02T08:32:43;23.10;49.30
6540;DHT22;50344;51.142;16.892;2024-03-02T08:35:10;23.00;49.30
6540;DHT22;50344;51.142;16.892;2024-03-02T08:37:43;23.10;50.10
6540;DHT22;50344;51.142;16.892;2024-03-02T08:40:09;23.10;50.10
6540;DHT22;50344;51.142;16.892;2024-03-02T08:42:35;23.10;50.10
6540;DHT22;50344;51.142;16.892;2024-03-02T08:45:01;23.10;50.50
6540;DHT22;50344;51.142;16.892;2024-03-02T08:47:27;23.10;50.00
6540;DHT22;50344;51.142;16.892;2024-03-02T08:49:52;23.10;50.00
6540;DHT22;50344;51.142;16.892;2024-03-02T08:52:18;23.20;49.50
6540;DHT22;50344;51.142;16.892;2024-03-02T08:54:44;22.80;49.10
6540;DHT22;50344;51.142;16.892;2024-03-02T08:57:09;23.10;49.10
6540;DHT22;50344;51.142;16.892;2024-03-02T08:59:35;23.20;48.70
6540;DHT22;50344;51.142;16.892;2024-03-02T09:02:00;23.20;48.60
6540;DHT22;50344;51.142;16.892;2024-03-02T09:04:26;23.20;48.50
6540;DHT22;50344;51.142;16.892;2024-03-02T09:06:52;23.20;48.60
6540;DHT22;50344;51.142;16.892;2024-03-02T09:09:17;23.20;48.40
6540;DHT22;50344;51.142;16.892;2024-03-02T09:11:43;23.20;48.10
6540;DHT22;50344;51.142;16.892;2024-03-02T09:14:08;23.20;47.80
6540;DHT22;50344;51.142;16.892;2024-03-02T09:16:34;23.20;47.80
6540;DHT22;50344;51.142;16.892;2024-03-02T09:18:59;23.20;47.20
6540;DHT22;50344;51.142;16.892;2024-03-02T09:21:26;23.20;46.70
6540;DHT22;50344;51.142;16.892;2024-03-02T09:23:51;23.20;46.60
6540;DHT22;50344;51.142;16.892;2024-03-02T09:26:17;23.20;46.30
6540;DHT22;50344;51.142;16.892;2024-03-02T09:28:43;23.20;46.40
6540;DHT22;50344;51.142;16.892;2024-03-02T09:31:09;23.20;46.10
6540;DHT22;50344;51.142;16.892;2024-03-02T09:33:34;23.20;46.10
6540;DHT22;50344;51.142;16.892;2024-03-02T09:36:00;23.20;46.00
6540;DHT22;50344;51.142;16.892;2024-03-02T09:38:26;23.20;46.00
6540;DHT22;50344;51.142;16.892;2024-03-02T09:40:51;23.20;46.00
6540;DHT22;50344;51.142;16.892;2024-03-02T09:43:17;23.30;46.10
6540;DHT22;50344;51.142;16.892;2024-03-02T09:45:42;23.20;46.00
6540;DHT22;50344;51.142;16.892;2024-03-02T09:48:08;23.20;46.00
6540;DHT22;50344;51.142;16.892;2024-03-02T09:50:33;23.20;46.00
6540;DHT22;50344;51.142;16.892;2024-03-02T09:52:59;23.20;45.90
6540;DHT22;50344;51.142;16.892;2024-03-02T09:55:25;23.20;46.00
6540;DHT22;50344;51.142;16.892;2024-03-02T09:57:50;23.20;46.00
6540;DHT22;50344;51.142;16.892;2024-03-02T10:00:16;23.30;46.00
6540;DHT22;50344;51.142;16.892;2024-03-02T10:02:42;23.30;45.90
6540;DHT22;50344;51.142;16.892;2024-03-02T10:05:10;23.30;45.90
6540;DHT22;50344;51.142;16.892;2024-03-02T10:07:37;23.30;45.70
6540;DHT22;50344;51.142;16.892;2024-03-02T10:10:13;23.30;45.60
6540;DHT22;50344;51.142;16.892;2024-03-02T10:12:38;23.30;45.70
6540;DHT22;50344;51.142;16.892;2024-03-02T10:15:04;23.20;45.80
6540;DHT22;50344;51.142;16.892;2024-03-02T10:17:33;23.20;45.80
6540;DHT22;50344;51.142;16.892;2024-03-02T10:19:59;23.20;45.80
6540;DHT22;50344;51.142;16.892;2024-03-02T10:22:24;23.20;45.90
6540;DHT22;50344;51.142;16.892;2024-03-02T10:24:51;23.20;46.00
6540;DHT22;50344;51.142;16.892;2024-03-02T10:27:17;23.20;46.20
6540;DHT22;50344;51.142;16.892;2024-03-02T10:29:45;23.20;46.20
6540;DHT22;50344;51.142;16.892;2024-03-02T10:32:11;23.20;46.30
6540;DHT22;50344;51.142;16.892;2024-03-02T10:34:37;23.20;46.30
6540;DHT22;50344;51.142;16.892;2024-03-02T10:37:05;23.20;46.30
6540;DHT22;50344;51.142;16.892;2024-03-02T10:39:31;23.20;46.30
6540;DHT22;50344;51.142;16.892;2024-03-02T10:41:57;23.10;46.20
6540;DHT22;50344;51.142;16.892;2024-03-02T10:44:23;23.20;46.20
6540;DHT22;50344;51.142;16.892;2024-03-02T10:46:50;23.20;46.20
6540;DHT22;50344;51.142;16.892;2024-03-02T10:49:16;23.20;46.40
6540;DHT22;50344;51.142;16.892;2024-03-02T10:51:43;23.10;46.30
6540;DHT22;50344;51.142;16.892;2024-03-02T10:54:08;23.10;46.40
6540;DHT22;50344;51.142;16.892;2024-03-02T11:01:44;23.10;46.60
6540;DHT22;50344;51.142;16.892;2024-03-02T11:04:11;23.10;46.80
6540;DHT22;50344;51.142;16.892;2024-03-02T11:06:38;23.10;46.80
6540;DHT22;50344;51.142;16.892;2024-03-02T11:09:06;23.20;46.80
6540;DHT22;50344;51.142;16.892;2024-03-02T11:11:36;23.20;46.80
6540;DHT22;50344;51.142;16.892;2024-03-02T11:14:02;23.30;46.90
6540;DHT22;50344;51.142;16.892;2024-03-02T11:16:34;23.30;46.80
6540;DHT22;50344;51.142;16.892;2024-03-02T11:19:33;23.30;46.90
6540;DHT22;50344;51.142;16.892;2024-03-02T11:21:52;23.60;47.20
6540;DHT22;50344;51.142;16.892;2024-03-02T11:26:47;23.30;46.80
6540;DHT22;50344;51.142;16.892;2024-03-02T11:31:57;23.30;47.70
6540;DHT22;50344;51.142;16.892;2024-03-02T11:34:28;23.30;47.00
6540;DHT22;50344;51.142;16.892;2024-03-02T11:36:54;23.20;47.00
6540;DHT22;50344;51.142;16.892;2024-03-02T11:39:20;23.20;47.00
6540;DHT22;50344;51.142;16.892;2024-03-02T11:41:45;23.10;45.40
6540;DHT22;50344;51.142;16.892;2024-03-02T11:44:11;23.00;44.30
6540;DHT22;50344;51.142;16.892;2024-03-02T11:46:39;22.90;44.80
6540;DHT22;50344;51.142;16.892;2024-03-02T11:49:04;22.90;44.80
6540;DHT22;50344;51.142;16.892;2024-03-02T11:51:32;22.90;44.60
6540;DHT22;50344;51.142;16.892;2024-03-02T11:53:58;22.90;44.60
6540;DHT22;50344;51.142;16.892;2024-03-02T11:56:25;22.90;44.00
6540;DHT22;50344;51.142;16.892;2024-03-02T11:58:52;22.90;44.50
6540;DHT22;50344;51.142;16.892;2024-03-02T12:01:18;22.90;44.70
6540;DHT22;50344;51.142;16.892;2024-03-02T12:03:45;22.80;44.40
6540;DHT22;50344;51.142;16.892;2024-03-02T12:06:11;22.80;44.80
6540;DHT22;50344;51.142;16.892;2024-03-02T12:08:38;22.80;44.30
6540;DHT22;50344;51.142;16.892;2024-03-02T12:11:04;22.80;44.30
6540;DHT22;50344;51.142;16.892;2024-03-02T12:13:31;22.80;45.10
6540;DHT22;50344;51.142;16.892;2024-03-02T12:15:58;22.80;44.60
6540;DHT22;50344;51.142;16.892;2024-03-02T12:18:24;22.80;44.50
6540;DHT22;50344;51.142;16.892;2024-03-02T12:20:49;22.80;44.40
6540;DHT22;50344;51.142;16.892;2024-03-02T12:23:18;22.80;45.40
6540;DHT22;50344;51.142;16.892;2024-03-02T12:25:43;22.80;45.80
6540;DHT22;50344;51.142;16.892;2024-03-02T12:28:09;22.80;46.70
6540;DHT22;50344;51.142;16.892;2024-03-02T12:30:35;22.90;46.00
6540;DHT22;50344;51.142;16.892;2024-03-02T12:33:01;22.80;46.40
6540;DHT22;50344;51.142;16.892;2024-03-02T12:35:27;22.80;47.00
6540;DHT22;50344;51.142;16.892;2024-03-02T12:37:53;22.70;46.40
6540;DHT22;50344;51.142;16.892;2024-03-02T12:40:19;22.70;46.90
6540;DHT22;50344;51.142;16.892;2024-03-02T12:42:45;22.80;46.80
6540;DHT22;50344;51.142;16.892;2024-03-02T12:45:11;22.70;46.40
6540;DHT22;50344;51.142;16.892;2024-03-02T12:47:36;22.70;45.40
6540;DHT22;50344;51.142;16.892;2024-03-02T12:50:06;22.70;45.80
6540;DHT22;50344;51.142;16.892;2024-03-02T12:52:32;22.70;46.00
6540;DHT22;50344;51.142;16.892;2024-03-02T12:55:01;22.70;46.10
6540;DHT22;50344;51.142;16.892;2024-03-02T12:57:29;22.70;45.60
6540;DHT22;50344;51.142;16.892;2024-03-02T13:02:30;22.60;45.00
6540;DHT22;50344;51.142;16.892;2024-03-02T13:04:57;22.70;47.00
6540;DHT22;50344;51.142;16.892;2024-03-02T13:07:23;22.80;47.20
6540;DHT22;50344;51.142;16.892;2024-03-02T13:09:49;22.80;47.20
6540;DHT22;50344;51.142;16.892;2024-03-02T13:12:15;22.90;47.40
6540;DHT22;50344;51.142;16.892;2024-03-02T13:14:41;22.90;48.20
6540;DHT22;50344;51.142;16.892;2024-03-02T13:17:10;23.00;47.50
6540;DHT22;50344;51.142;16.892;2024-03-02T13:19:36;23.00;47.40
6540;DHT22;50344;51.142;16.892;2024-03-02T13:22:01;23.00;47.30
6540;DHT22;50344;51.142;16.892;2024-03-02T13:24:30;23.00;47.10
6540;DHT22;50344;51.142;16.892;2024-03-02T13:26:56;23.00;46.90
6540;DHT22;50344;51.142;16.892;2024-03-02T13:29:23;23.00;46.70
6540;DHT22;50344;51.142;16.892;2024-03-02T13:31:49;23.10;46.70
6540;DHT22;50344;51.142;16.892;2024-03-02T13:34:15;23.10;46.70
6540;DHT22;50344;51.142;16.892;2024-03-02T13:36:40;23.00;46.50
6540;DHT22;50344;51.142;16.892;2024-03-02T13:39:06;23.10;46.30
6540;DHT22;50344;51.142;16.892;2024-03-02T13:41:34;23.10;46.10
6540;DHT22;50344;51.142;16.892;2024-03-02T13:44:00;23.10;45.90
6540;DHT22;50344;51.142;16.892;2024-03-02T13:46:26;23.10;45.70
6540;DHT22;50344;51.142;16.892;2024-03-02T13:48:52;23.10;45.60
6540;DHT22;50344;51.142;16.892;2024-03-02T13:51:18;23.10;45.40
6540;DHT22;50344;51.142;16.892;2024-03-02T13:53:43;23.10;45.40
6540;DHT22;50344;51.142;16.892;2024-03-02T13:56:09;23.10;45.40
6540;DHT22;50344;51.142;16.892;2024-03-02T13:58:34;23.10;45.20
6540;DHT22;50344;51.142;16.892;2024-03-02T14:01:00;23.00;45.30
6540;DHT22;50344;51.142;16.892;2024-03-02T14:03:26;23.00;45.30
6540;DHT22;50344;51.142;16.892;2024-03-02T14:05:53;23.00;45.40
6540;DHT22;50344;51.142;16.892;2024-03-02T14:08:18;23.00;45.70
6540;DHT22;50344;51.142;16.892;2024-03-02T14:10:44;23.00;45.90
6540;DHT22;50344;51.142;16.892;2024-03-02T14:13:09;23.10;46.30
6540;DHT22;50344;51.142;16.892;2024-03-02T14:15:35;23.10;46.50
6540;DHT22;50344;51.142;16.892;2024-03-02T14:18:04;23.10;47.00
6540;DHT22;50344;51.142;16.892;2024-03-02T14:20:29;23.10;47.30
6540;DHT22;50344;51.142;16.892;2024-03-02T14:23:06;23.10;47.60
6540;DHT22;50344;51.142;16.892;2024-03-02T14:25:31;23.10;47.90
6540;DHT22;50344;51.142;16.892;2024-03-02T14:27:59;23.10;48.40
6540;DHT22;50344;51.142;16.892;2024-03-02T14:30:25;23.10;48.40
6540;DHT22;50344;51.142;16.892;2024-03-02T14:32:50;23.10;48.50
6540;DHT22;50344;51.142;16.892;2024-03-02T14:35:17;23.10;49.00
6540;DHT22;50344;51.142;16.892;2024-03-02T14:37:43;23.10;49.60
6540;DHT22;50344;51.142;16.892;2024-03-02T14:40:09;23.10;49.60
6540;DHT22;50344;51.142;16.892;2024-03-02T14:42:35;23.10;49.80
6540;DHT22;50344;51.142;16.892;2024-03-02T14:45:01;23.20;49.90
6540;DHT22;50344;51.142;16.892;2024-03-02T14:47:31;23.20;50.10
6540;DHT22;50344;51.142;16.892;2024-03-02T14:49:57;23.20;50.10
6540;DHT22;50344;51.142;16.892;2024-03-02T14:52:23;23.20;50.40
6540;DHT22;50344;51.142;16.892;2024-03-02T14:54:48;23.20;50.20
6540;DHT22;50344;51.142;16.892;2024-03-02T14:57:14;23.30;50.30
6540;DHT22;50344;51.142;16.892;2024-03-02T14:59:40;23.30;50.40
6540;DHT22;50344;51.142;16.892;2024-03-02T15:02:06;23.20;50.30
6540;DHT22;50344;51.142;16.892;2024-03-02T15:04:32;23.20;50.20
6540;DHT22;50344;51.142;16.892;2024-03-02T15:06:58;23.30;50.40
6540;DHT22;50344;51.142;16.892;2024-03-02T15:09:23;23.30;50.20
6540;DHT22;50344;51.142;16.892;2024-03-02T15:11:49;23.30;50.20
6540;DHT22;50344;51.142;16.892;2024-03-02T15:14:14;23.20;50.00
6540;DHT22;50344;51.142;16.892;2024-03-02T15:16:40;23.20;50.20
6540;DHT22;50344;51.142;16.892;2024-03-02T15:19:07;23.20;50.00
6540;DHT22;50344;51.142;16.892;2024-03-02T15:21:33;23.20;50.10
6540;DHT22;50344;51.142;16.892;2024-03-02T15:23:58;23.20;50.20
6540;DHT22;50344;51.142;16.892;2024-03-02T15:26:24;23.20;50.20
6540;DHT22;50344;51.142;16.892;2024-03-02T15:28:49;23.20;50.90
6540;DHT22;50344;51.142;16.892;2024-03-02T15:31:15;23.20;50.20
6540;DHT22;50344;51.142;16.892;2024-03-02T15:33:42;23.20;50.30
6540;DHT22;50344;51.142;16.892;2024-03-02T15:36:08;23.20;50.40
6540;DHT22;50344;51.142;16.892;2024-03-02T15:38:33;23.20;50.30
6540;DHT22;50344;51.142;16.892;2024-03-02T15:41:04;23.20;50.00
6540;DHT22;50344;51.142;16.892;2024-03-02T15:43:29;23.20;50.30
6540;DHT22;50344;51.142;16.892;2024-03-02T15:45:56;23.10;49.90
6540;DHT22;50344;51.142;16.892;2024-03-02T15:48:22;23.10;49.90
6540;DHT22;50344;51.142;16.892;2024-03-02T15:50:48;23.10;50.00
6540;DHT22;50344;51.142;16.892;2024-03-02T15:53:15;23.10;50.30
6540;DHT22;50344;51.142;16.892;2024-03-02T15:55:41;23.10;50.00
6540;DHT22;50344;51.142;16.892;2024-03-02T15:58:07;23.10;50.30
6540;DHT22;50344;51.142;16.892;2024-03-02T16:00:32;23.10;50.10
6540;DHT22;50344;51.142;16.892;2024-03-02T16:02:58;23.10;50.00
6540;DHT22;50344;51.142;16.892;2024-03-02T16:05:23;23.10;50.00
6540;DHT22;50344;51.142;16.892;2024-03-02T16:07:49;23.10;50.00
6540;DHT22;50344;51.142;16.892;2024-03-02T16:10:14;23.20;50.00
6540;DHT22;50344;51.142;16.892;2024-03-02T16:12:40;23.10;50.20
6540;DHT22;50344;51.142;16.892;2024-03-02T16:15:05;23.10;49.90
6540;DHT22;50344;51.142;16.892;2024-03-02T16:17:31;23.10;49.80
6540;DHT22;50344;51.142;16.892;2024-03-02T16:19:57;23.10;50.10
6540;DHT22;50344;51.142;16.892;2024-03-02T16:22:23;23.10;49.70
6540;DHT22;50344;51.142;16.892;2024-03-02T16:24:50;23.10;50.00
6540;DHT22;50344;51.142;16.892;2024-03-02T16:27:15;23.10;50.00
6540;DHT22;50344;51.142;16.892;2024-03-02T16:29:43;23.10;49.70
6540;DHT22;50344;51.142;16.892;2024-03-02T16:32:08;23.20;50.30
6540;DHT22;50344;51.142;16.892;2024-03-02T16:34:34;23.20;50.10
6540;DHT22;50344;51.142;16.892;2024-03-02T16:37:01;23.10;49.90
6540;DHT22;50344;51.142;16.892;2024-03-02T16:39:28;23.10;49.40
6540;DHT22;50344;51.142;16.892;2024-03-02T16:41:53;23.10;49.90
6540;DHT22;50344;51.142;16.892;2024-03-02T16:44:19;23.10;49.60
6540;DHT22;50344;51.142;16.892;2024-03-02T16:46:45;23.10;49.90
6540;DHT22;50344;51.142;16.892;2024-03-02T16:49:12;23.10;49.90
6540;DHT22;50344;51.142;16.892;2024-03-02T16:51:41;23.10;49.80
6540;DHT22;50344;51.142;16.892;2024-03-02T16:54:07;23.10;49.50
6540;DHT22;50344;51.142;16.892;2024-03-02T16:56:42;23.10;49.70